This is the latest recevied weather packets stored in our database for station/object N2UFM. If no packets are shown the sender has not sent any weather packets the latest 1 day(s).
| Time | Temp. | Humidity | Pressure | Rain* | Wind** | Luminosity | Snow |
|---|---|---|---|---|---|---|---|
| 1778032787 | 20.56° C | 63% | 1011.5 hPa | 0 mm | - | - | - |
| 1778032456 | 20.56° C | 63% | 1011.5 hPa | 0 mm | - | - | - |
| 1778032156 | 20.56° C | 63% | 1011.5 hPa | 0 mm | - | - | - |
| 1778031856 | 20.56° C | 63% | 1011.4 hPa | 0 mm | - | - | - |
| 1778031256 | 21.11° C | 62% | 1011.3 hPa | 0 mm | - | - | - |
| 1778030956 | 21.11° C | 62% | 1011.3 hPa | 0 mm | - | - | - |
| 1778030656 | 21.11° C | 62% | 1011.2 hPa | 0 mm | - | - | - |
| 1778029455 | 21.67° C | 61% | 1011.1 hPa | 0 mm | - | - | - |
| 1778029155 | 21.67° C | 60% | 1010.9 hPa | 0 mm | - | - | - |
| 1778028855 | 21.67° C | 60% | 1011 hPa | 0 mm | - | - | - |
| 1778027654 | 22.78° C | 57% | 1010.8 hPa | 0 mm | - | - | - |
| 1778027354 | 23.33° C | 54% | 1010.6 hPa | 0 mm | - | - | - |
| 1778027054 | 23.89° C | 50% | 1010.5 hPa | 0 mm | - | - | - |
| 1778025253 | 25° C | 45% | 1010.1 hPa | 0 mm | - | - | - |
| 1778024953 | 25° C | 45% | 1010.2 hPa | 0 mm | - | - | - |
| 1778023152 | 26.11° C | 40% | 1009.5 hPa | 0 mm | - | - | - |
| 1778022852 | 26.11° C | 40% | 1009.5 hPa | 0 mm | - | - | - |
| 1778021051 | 27.22° C | 36% | 1009.3 hPa | 0 mm | - | - | - |
| 1778019250 | 28.33° C | 32% | 1009 hPa | 0 mm | - | - | - |
| 1778016849 | 28.89° C | 35% | 1008.8 hPa | 0 mm | - | - | - |
| 1778015348 | 29.44° C | 34% | 1008.8 hPa | 0 mm | - | - | - |
| 1778015048 | 29.44° C | 34% | 1008.6 hPa | 0 mm | - | - | - |
| 1778014748 | 29.44° C | 34% | 1008.6 hPa | 0 mm | - | - | - |
| 1778013847 | 29.44° C | 33% | 1008.6 hPa | 0 mm | - | - | - |
| 1778012947 | 30° C | 32% | 1008.9 hPa | 0 mm | - | - | - |
* Rain latest hour (hover to see other rain measurements)
** Current wind speed in m/s (hover to see current wind gust speed)